Time;durP1;ratioP1;P1;durP2;ratioP2;P2;SDS_P1;SDS_P2;PMS_P1;PMS_P2;Temp;Humidity;BMP_temperature;BMP_pressure;BME280_temperature;BME280_humidity;BME280_pressure;Samples;Min_cycle;Max_cycle;Signal;HPM_P1;HPM_P2
2022/09/04 00:02:37;;;;;;;1999.90;999.90;;;;;;;15.52;89.44;99237.69;8371952;28;20044;-78
2022/09/04 00:06:56;;;;;;;1999.90;999.90;;;;;;;15.49;89.04;99242.16;8375927;28;20039;-78
2022/09/04 00:11:11;;;;;;;1999.90;999.90;;;;;;;15.44;88.98;99239.66;8403131;28;20041;-79
2022/09/04 00:15:18;;;;;;;1999.90;999.90;;;;;;;15.38;88.89;99242.41;8389255;28;20052;-77
2022/09/04 00:19:35;;;;;;;1999.90;999.90;;;;;;;15.33;89.28;99244.31;8389983;28;20056;-78
2022/09/04 00:23:47;;;;;;;1999.90;999.90;;;;;;;15.28;89.33;99247.03;8367132;28;20881;-78
2022/09/04 00:27:57;;;;;;;1999.90;999.90;;;;;;;15.24;89.16;99247.13;8390788;28;20056;-78
2022/09/04 00:31:58;;;;;;;1999.90;999.90;;;;;;;15.23;89.62;99251.50;8372299;28;20043;-78
2022/09/04 00:36:02;;;;;;;1999.90;999.90;;;;;;;15.19;89.40;99249.88;8371634;28;20445;-78
2022/09/04 00:40:13;;;;;;;1999.90;999.90;;;;;;;15.16;89.26;99254.34;8377200;28;20127;-78
2022/09/04 00:44:23;;;;;;;1999.90;999.90;;;;;;;15.09;89.28;99269.34;8354478;28;20055;-77
2022/09/04 00:48:52;;;;;;;1999.90;999.90;;;;;;;15.05;89.47;99267.66;8391070;28;20045;-78
2022/09/04 00:53:03;;;;;;;1999.90;999.90;;;;;;;15.02;89.44;99272.97;8386840;28;20045;-79
2022/09/04 00:57:57;;;;;;;1999.90;999.90;;;;;;;14.96;89.21;99273.13;8374696;28;20452;-78
2022/09/04 01:02:21;;;;;;;1999.90;999.90;;;;;;;14.91;89.16;99280.25;8346307;28;20500;-78
2022/09/04 01:06:51;;;;;;;1999.90;999.90;;;;;;;14.85;89.52;99281.22;8386542;28;20037;-78
2022/09/04 01:11:18;;;;;;;1999.90;999.90;;;;;;;14.85;88.96;99293.44;8386989;28;20106;-78
2022/09/04 01:15:33;;;;;;;1999.90;999.90;;;;;;;14.81;89.50;99295.25;8375994;28;20071;-78
2022/09/04 01:20:02;;;;;;;1999.90;999.90;;;;;;;14.76;89.53;99294.53;8363239;28;20053;-77
2022/09/04 01:24:38;;;;;;;1999.90;999.90;;;;;;;14.73;89.44;99299.81;8376799;28;20074;-79
2022/09/04 01:29:14;;;;;;;1999.90;999.90;;;;;;;14.71;89.59;99299.81;8377544;28;20039;-79
2022/09/04 01:33:33;;;;;;;1999.90;999.90;;;;;;;14.69;89.82;99313.81;8371779;28;20060;-78
2022/09/04 01:37:54;;;;;;;1999.90;999.90;;;;;;;14.64;89.66;99308.72;8356175;28;20055;-79
2022/09/04 01:42:07;;;;;;;1999.90;999.90;;;;;;;14.62;89.56;99307.88;8370939;28;20076;-79
2022/09/04 01:46:40;;;;;;;1999.90;999.90;;;;;;;14.64;89.22;99313.09;8393260;28;20653;-79
2022/09/04 01:50:47;;;;;;;1999.90;999.90;;;;;;;14.58;89.42;99305.38;8347115;28;20076;-79
2022/09/04 01:55:10;;;;;;;1999.90;999.90;;;;;;;14.56;89.54;99304.56;8377824;28;20044;-78
2022/09/04 01:59:29;;;;;;;1999.90;999.90;;;;;;;14.54;88.80;99312.41;8378205;28;20036;-79
2022/09/04 02:03:57;;;;;;;1999.90;999.90;;;;;;;14.49;88.89;99311.66;8378982;28;20082;-79
2022/09/04 02:08:14;;;;;;;1999.90;999.90;;;;;;;14.44;88.84;99309.16;8376319;28;20059;-78
2022/09/04 02:12:36;;;;;;;1999.90;999.90;;;;;;;14.39;89.20;99313.59;8359931;28;20444;-78
2022/09/04 02:16:55;;;;;;;1999.90;999.90;;;;;;;14.37;89.45;99318.00;8356682;28;20032;-79
2022/09/04 02:21:06;;;;;;;1999.90;999.90;;;;;;;14.32;89.65;99313.72;8371417;28;20083;-79
2022/09/04 02:25:45;;;;;;;1999.90;999.90;;;;;;;14.32;89.77;99316.34;8364835;28;20045;-78
2022/09/04 02:30:02;;;;;;;1999.90;999.90;;;;;;;14.28;90.10;99318.16;8368729;28;20055;-77
2022/09/04 02:34:10;;;;;;;1999.90;999.90;;;;;;;14.27;90.13;99315.59;8391183;28;20048;-80
2022/09/04 02:38:23;;;;;;;1999.90;999.90;;;;;;;14.28;89.29;99323.38;8385853;28;20036;-79
2022/09/04 02:42:49;;;;;;;1999.90;999.90;;;;;;;14.26;89.14;99326.94;8360149;28;20408;-78
2022/09/04 02:47:19;;;;;;;1999.90;999.90;;;;;;;14.18;89.50;99319.22;8367052;28;20044;-77
2022/09/04 02:52:13;;;;;;;1999.90;999.90;;;;;;;14.14;89.55;99328.03;8365082;28;20140;-79
2022/09/04 02:56:39;;;;;;;1999.90;999.90;;;;;;;14.09;89.97;99322.91;8368938;28;20127;-76
2022/09/04 03:00:54;;;;;;;1999.90;999.90;;;;;;;13.95;90.36;99326.66;8377721;28;20063;-78
2022/09/04 03:05:07;;;;;;;1999.90;999.90;;;;;;;13.91;90.67;99329.34;8364590;28;20072;-79
2022/09/04 03:09:21;;;;;;;1999.90;999.90;;;;;;;13.94;91.06;99324.94;8363512;28;20041;-78
2022/09/04 03:13:31;;;;;;;1999.90;999.90;;;;;;;13.97;91.26;99327.50;8374630;28;20468;-78
2022/09/04 03:17:45;;;;;;;1999.90;999.90;;;;;;;14.01;91.21;99331.78;8363456;28;20068;-78
2022/09/04 03:22:07;;;;;;;1999.90;999.90;;;;;;;14.04;91.20;99336.94;8381162;28;20052;-79
2022/09/04 03:26:26;;;;;;;1999.90;999.90;;;;;;;13.98;90.94;99345.72;8357770;28;20096;-79
2022/09/04 03:30:33;;;;;;;1999.90;999.90;;;;;;;13.99;91.21;99347.44;8364332;28;20041;-78
2022/09/04 03:34:44;;;;;;;1999.90;999.90;;;;;;;14.09;91.67;99345.53;8375023;28;20060;-79
2022/09/04 03:39:08;;;;;;;1999.90;999.90;;;;;;;14.19;92.33;99339.25;8377230;28;20036;-78
2022/09/04 03:43:29;;;;;;;1999.90;999.90;;;;;;;14.26;92.60;99353.91;8350763;28;20068;-78
2022/09/04 03:47:58;;;;;;;1999.90;999.90;;;;;;;14.35;93.08;99355.44;8358057;28;20075;-78
2022/09/04 03:52:35;;;;;;;1999.90;999.90;;;;;;;14.40;93.01;99364.09;8388874;28;20044;-78
2022/09/04 03:57:08;;;;;;;1999.90;999.90;;;;;;;14.43;93.28;99369.25;8365194;28;20052;-79
2022/09/04 04:01:16;;;;;;;1999.90;999.90;;;;;;;14.43;93.00;99370.13;8383101;28;20447;-79
2022/09/04 04:05:35;;;;;;;1999.90;999.90;;;;;;;14.35;93.46;99379.81;8348778;28;20036;-79
2022/09/04 04:09:52;;;;;;;1999.90;999.90;;;;;;;14.41;94.40;99368.41;8371624;28;20040;-79
2022/09/04 04:14:01;;;;;;;1999.90;999.90;;;;;;;14.48;94.93;99376.13;8354373;28;20135;-79
2022/09/04 04:18:18;;;;;;;1999.90;999.90;;;;;;;14.57;95.11;99380.31;8363897;28;20059;-78
2022/09/04 04:22:38;;;;;;;1999.90;999.90;;;;;;;14.60;94.77;99379.38;8370290;28;20036;-79
2022/09/04 04:26:58;;;;;;;1999.90;999.90;;;;;;;14.59;94.08;99388.97;8368746;28;20040;-79
2022/09/04 04:31:14;;;;;;;1999.90;999.90;;;;;;;14.48;94.45;99390.94;8372955;28;20143;-79
2022/09/04 04:35:55;;;;;;;1999.90;999.90;;;;;;;14.44;95.36;99395.38;8371351;28;20460;-79
2022/09/04 04:40:21;;;;;;;1999.90;999.90;;;;;;;14.53;95.83;99399.53;8372502;28;20052;-79
2022/09/04 04:49:32;;;;;;;1999.90;999.90;;;;;;;14.72;95.71;99390.44;8389748;28;20071;-79
2022/09/04 04:54:01;;;;;;;1999.90;999.90;;;;;;;14.82;96.01;99393.69;8389245;28;20048;-78
2022/09/04 04:58:22;;;;;;;1999.90;999.90;;;;;;;14.88;95.48;99398.78;8390430;28;20064;-79
2022/09/04 05:02:34;;;;;;;1999.90;999.90;;;;;;;14.91;95.75;99405.72;8392850;28;20040;-79
2022/09/04 05:07:00;;;;;;;1999.90;999.90;;;;;;;14.95;95.51;99410.00;8374257;28;20082;-79
2022/09/04 05:11:21;;;;;;;1999.90;999.90;;;;;;;14.98;95.76;99415.16;8386412;28;20391;-78
2022/09/04 05:15:30;;;;;;;1999.90;999.90;;;;;;;15.04;95.71;99417.63;8372808;28;20032;-78
2022/09/04 05:20:15;;;;;;;1999.90;999.90;;;;;;;15.02;95.71;99428.13;8372182;28;20059;-79
2022/09/04 05:24:31;;;;;;;1999.90;999.90;;;;;;;14.97;95.79;99429.97;8382598;28;20076;-78
2022/09/04 05:28:45;;;;;;;1999.90;999.90;;;;;;;14.95;96.38;99436.13;8377515;28;20465;-78
2022/09/04 05:33:03;;;;;;;1999.90;999.90;;;;;;;15.01;97.31;99439.47;8346520;28;20052;-78
2022/09/04 05:37:52;;;;;;;1999.90;999.90;;;;;;;15.00;97.55;99455.19;8348659;28;21136;-78
2022/09/04 05:42:06;;;;;;;1999.90;999.90;;;;;;;15.11;98.35;99458.47;8285394;28;20068;-78
2022/09/04 05:46:17;;;;;;;1999.90;999.90;;;;;;;15.25;98.52;99464.22;8324129;28;20127;-78
2022/09/04 05:50:50;;;;;;;1999.90;999.90;;;;;;;15.35;98.17;99473.59;8331635;28;20064;-78
2022/09/04 05:54:57;;;;;;;;;;;;;;;15.34;98.23;99482.34;8374067;28;20048;-77
2022/09/04 05:59:08;;;;;;;1999.90;999.90;;;;;;;15.35;98.20;99481.44;8333520;28;19924;-78
2022/09/04 06:04:01;;;;;;;1999.90;999.90;;;;;;;15.39;98.05;99498.78;8335137;28;20068;-78
2022/09/04 06:08:16;;;;;;;1999.90;999.90;;;;;;;15.43;98.50;99496.97;8366509;28;20068;-78
2022/09/04 06:12:33;;;;;;;1999.90;999.90;;;;;;;15.57;98.06;99501.88;8313921;28;20073;-78
2022/09/04 06:16:50;;;;;;;1999.90;999.90;;;;;;;15.71;97.42;99507.72;8322414;28;20131;-81
2022/09/04 06:21:07;;;;;;;1999.90;999.90;;;;;;;15.83;97.23;99512.66;8353266;28;20044;-78
2022/09/04 06:25:12;;;;;;;1999.90;999.90;;;;;;;15.90;96.62;99518.59;8358195;28;20041;-78
2022/09/04 06:29:23;;;;;;;1999.90;999.90;;;;;;;15.93;96.33;99522.00;8351901;28;20052;-79
2022/09/04 06:33:49;;;;;;;1999.90;999.90;;;;;;;15.94;95.35;99525.47;8321010;28;20076;-79
2022/09/04 06:38:25;;;;;;;1999.90;999.90;;;;;;;16.02;95.19;99527.03;8376314;28;20115;-79
2022/09/04 06:42:53;;;;;;;1999.90;999.90;;;;;;;16.01;94.83;99538.41;8367521;28;20076;-79
2022/09/04 06:46:54;;;;;;;1999.90;999.90;;;;;;;16.07;94.88;99541.78;8349608;28;20544;-78
2022/09/04 06:51:06;;;;;;;1999.90;999.90;;;;;;;16.12;94.49;99537.28;8370533;28;20036;-79
2022/09/04 06:55:18;;;;;;;1999.90;999.90;;;;;;;16.22;94.55;99538.78;8382803;28;20045;-78
2022/09/04 06:59:40;;;;;;;1999.90;999.90;;;;;;;16.29;94.25;99535.94;8346402;28;20036;-78
2022/09/04 07:03:45;;;;;;;;;;;;;;;16.39;93.81;99544.47;8363355;28;20889;-77
2022/09/04 07:08:19;;;;;;;1999.90;999.90;;;;;;;16.44;93.49;99550.44;8346921;28;19970;-77
2022/09/04 07:12:54;;;;;;;1999.90;999.90;;;;;;;16.58;94.08;99550.94;8299259;28;20134;-77
2022/09/04 07:17:24;;;;;;;1999.90;999.90;;;;;;;16.73;93.91;99554.97;8366078;28;20044;-77
2022/09/04 07:21:51;;;;;;;1999.90;999.90;;;;;;;16.88;93.12;99559.78;8359759;28;20131;-77
2022/09/04 07:26:17;;;;;;;1999.90;999.90;;;;;;;17.06;92.17;99560.19;8364825;28;20755;-77
2022/09/04 07:30:21;;;;;;;1999.90;999.90;;;;;;;17.10;91.34;99561.81;8365728;28;20044;-77
2022/09/04 07:34:30;;;;;;;1999.90;999.90;;;;;;;17.08;91.22;99567.13;8357905;28;20048;-77
2022/09/04 07:38:45;;;;;;;1999.90;999.90;;;;;;;17.25;90.91;99577.13;8370001;28;20040;-77
2022/09/04 07:42:54;;;;;;;1999.90;999.90;;;;;;;17.26;90.11;99581.47;8346822;28;20049;-77
2022/09/04 07:47:11;;;;;;;1999.90;999.90;;;;;;;17.20;90.75;99582.50;8375205;28;20048;-77
2022/09/04 07:51:22;;;;;;;1999.90;999.90;;;;;;;17.40;91.21;99588.94;8351343;28;20642;-77
2022/09/04 07:55:45;;;;;;;1999.90;999.90;;;;;;;17.67;90.32;99592.53;8375470;28;20084;-78
2022/09/04 08:00:03;;;;;;;1999.90;999.90;;;;;;;17.94;88.83;99593.47;8376669;28;20452;-77
2022/09/04 08:04:49;;;;;;;1999.90;999.90;;;;;;;18.25;87.58;99601.25;8355973;28;20511;-77
2022/09/04 08:09:06;;;;;;;1999.90;999.90;;;;;;;18.63;85.88;99598.25;8379082;28;20033;-78
2022/09/04 08:13:23;;;;;;;1999.90;999.90;;;;;;;19.50;82.82;99596.91;8368403;28;20505;-77
2022/09/04 08:18:02;;;;;;;1999.90;999.90;;;;;;;20.28;78.24;99602.63;8374173;28;20052;-77
2022/09/04 08:22:15;;;;;;;1999.90;999.90;;;;;;;20.86;74.87;99607.31;8356337;28;20116;-77
2022/09/04 08:26:39;;;;;;;1999.90;999.90;;;;;;;21.29;72.28;99601.88;8367396;28;20131;-78
2022/09/04 08:31:07;;;;;;;1999.90;999.90;;;;;;;21.78;70.73;99604.94;8356737;28;20044;-77
2022/09/04 08:35:31;;;;;;;1999.90;999.90;;;;;;;22.20;68.79;99609.13;8374515;28;20055;-77
2022/09/04 08:39:58;;;;;;;1999.90;999.90;;;;;;;22.76;67.51;99613.41;8372489;28;20090;-77
2022/09/04 08:44:38;;;;;;;1999.90;999.90;;;;;;;22.80;64.84;99605.25;8379422;28;20098;-76
2022/09/04 08:49:02;;;;;;;1999.90;999.90;;;;;;;23.25;64.33;99618.84;8385100;28;20104;-77
2022/09/04 08:53:21;;;;;;;1999.90;999.90;;;;;;;23.44;62.34;99619.59;8377703;28;20115;-77
2022/09/04 08:58:07;;;;;;;1999.90;999.90;;;;;;;23.66;61.54;99624.63;8369605;28;20040;-77
2022/09/04 09:02:47;;;;;;;1999.90;999.90;;;;;;;23.92;60.13;99626.72;8351555;28;20049;-77
2022/09/04 09:07:08;;;;;;;1999.90;999.90;;;;;;;24.16;59.12;99624.47;8325736;28;20037;-78
2022/09/04 09:11:32;;;;;;;1999.90;999.90;;;;;;;24.10;57.73;99619.53;8350574;28;20140;-78
2022/09/04 09:16:02;;;;;;;1999.90;999.90;;;;;;;24.21;56.85;99621.56;8366140;28;20033;-77
2022/09/04 09:20:53;;;;;;;1999.90;999.90;;;;;;;24.60;57.22;99619.31;8338164;28;20064;-77
2022/09/04 09:25:19;;;;;;;1999.90;999.90;;;;;;;24.67;55.98;99628.63;8349279;28;20076;-78
2022/09/04 09:29:47;;;;;;;1999.90;999.90;;;;;;;25.06;57.01;99624.56;8351112;28;20106;-78
2022/09/04 09:34:17;;;;;;;1999.90;999.90;;;;;;;25.48;55.55;99622.88;8348723;28;20155;-78
2022/09/04 09:38:28;;;;;;;1999.90;999.90;;;;;;;25.58;54.79;99626.69;8354342;28;20474;-77
2022/09/04 09:42:48;;;;;;;1999.90;999.90;;;;;;;25.97;54.48;99619.84;8354939;28;20068;-78
2022/09/04 09:47:18;;;;;;;1999.90;999.90;;;;;;;26.11;53.14;99611.81;8353995;28;20045;-77
2022/09/04 09:51:41;;;;;;;1999.90;999.90;;;;;;;26.16;52.13;99609.72;8357870;28;20459;-77
2022/09/04 09:56:16;;;;;;;1999.90;999.90;;;;;;;26.25;50.46;99600.28;8354077;28;20127;-77
2022/09/04 10:00:28;;;;;;;;;;;;;;;26.47;50.95;99597.94;8376638;28;20064;-79
2022/09/04 10:04:54;;;;;;;1999.90;999.90;;;;;;;26.64;49.37;99605.66;8361138;28;19920;-78
2022/09/04 10:09:07;;;;;;;1999.90;999.90;;;;;;;26.76;49.40;99596.00;8378284;28;20048;-77
2022/09/04 10:13:28;;;;;;;1999.90;999.90;;;;;;;26.98;47.96;99587.38;8377284;28;20102;-77
2022/09/04 10:17:36;;;;;;;1999.90;999.90;;;;;;;27.12;47.99;99584.66;8361137;28;20040;-77
2022/09/04 10:21:56;;;;;;;1999.90;999.90;;;;;;;27.26;46.80;99586.31;8362181;28;20049;-76
2022/09/04 10:25:58;;;;;;;1999.90;999.90;;;;;;;27.55;46.82;99581.63;8360287;28;20044;-78
2022/09/04 10:30:05;;;;;;;;;;;;;;;27.78;44.49;99572.84;8360849;28;20090;-78
2022/09/04 10:34:42;;;;;;;1999.90;999.90;;;;;;;27.82;41.92;99573.47;8359308;28;19926;-77
2022/09/04 10:43:52;;;;;;;1999.90;999.90;;;;;;;28.31;40.32;99577.91;8376672;28;20067;-77
2022/09/04 10:47:54;;;;;;;1999.90;999.90;;;;;;;28.33;37.77;99568.78;8347326;28;20037;-78
2022/09/04 10:52:12;;;;;;;1999.90;999.90;;;;;;;28.49;38.43;99572.03;8370139;28;20108;-79
2022/09/04 10:56:25;;;;;;;1999.90;999.90;;;;;;;28.52;38.78;99562.91;8363277;28;20201;-78
2022/09/04 11:01:02;;;;;;;1999.90;999.90;;;;;;;28.46;37.65;99566.06;8364843;28;20385;-78
2022/09/04 11:05:26;;;;;;;1999.90;999.90;;;;;;;28.45;38.19;99559.03;8337613;28;20057;-78
2022/09/04 11:09:56;;;;;;;1999.90;999.90;;;;;;;28.22;38.22;99560.72;8375179;28;22268;-78
2022/09/04 11:14:06;;;;;;;1999.90;999.90;;;;;;;28.13;38.02;99558.72;8342658;28;20045;-78
2022/09/04 11:18:26;;;;;;;1999.90;999.90;;;;;;;28.07;38.87;99552.03;8354396;28;20115;-78
2022/09/04 11:22:46;;;;;;;1999.90;999.90;;;;;;;28.18;38.00;99541.38;8340413;28;20049;-78
2022/09/04 11:26:52;;;;;;;1999.90;999.90;;;;;;;28.55;37.33;99544.84;8363221;28;20072;-78
2022/09/04 11:31:02;;;;;;;1999.90;999.90;;;;;;;28.41;35.12;99546.88;8362383;28;20060;-78
2022/09/04 11:35:31;;;;;;;1999.90;999.90;;;;;;;28.83;35.36;99545.41;8358751;28;20536;-77
2022/09/04 11:40:04;;;;;;;1999.90;999.90;;;;;;;29.29;35.21;99541.84;8363593;28;20063;-78
2022/09/04 11:44:29;;;;;;;1999.90;999.90;;;;;;;29.45;32.87;99545.88;8361225;28;20044;-77
2022/09/04 11:48:43;;;;;;;1999.90;999.90;;;;;;;28.66;32.18;99546.69;8338602;28;20482;-77
2022/09/04 11:53:10;;;;;;;1999.90;999.90;;;;;;;28.69;32.91;99546.44;8363082;28;20045;-77
2022/09/04 11:57:47;;;;;;;1999.90;999.90;;;;;;;29.07;32.90;99559.56;8367261;28;20052;-77
2022/09/04 12:02:28;;;;;;;1999.90;999.90;;;;;;;29.36;30.95;99551.06;8384136;28;20052;-77
2022/09/04 12:06:49;;;;;;;1999.90;999.90;;;;;;;29.62;30.44;99552.53;8378944;28;20047;-77
2022/09/04 12:11:13;;;;;;;1999.90;999.90;;;;;;;30.10;30.71;99554.91;8365927;28;20048;-77
2022/09/04 12:15:21;;;;;;;1999.90;999.90;;;;;;;30.29;30.57;99564.94;8382334;28;20492;-77
2022/09/04 12:19:53;;;;;;;1999.90;999.90;;;;;;;30.08;31.89;99560.38;8365184;28;20072;-77
2022/09/04 12:24:09;;;;;;;1999.90;999.90;;;;;;;29.25;29.22;99572.47;8383251;28;20048;-77
2022/09/04 12:28:56;;;;;;;1999.90;999.90;;;;;;;28.37;30.31;99569.41;8349211;28;20056;-77
2022/09/04 12:33:37;;;;;;;1999.90;999.90;;;;;;;28.35;32.48;99566.00;8351116;28;20135;-77
2022/09/04 12:37:48;;;;;;;1999.90;999.90;;;;;;;27.95;31.97;99568.94;8382178;28;20037;-77
2022/09/04 12:42:03;;;;;;;1999.90;999.90;;;;;;;27.67;33.18;99570.97;8366538;28;20044;-77
2022/09/04 12:46:35;;;;;;;1999.90;999.90;;;;;;;27.40;33.69;99562.22;8363534;28;20052;-77
2022/09/04 12:50:47;;;;;;;1999.90;999.90;;;;;;;27.19;34.17;99567.25;8349492;28;20529;-77
2022/09/04 12:54:55;;;;;;;1999.90;999.90;;;;;;;27.26;34.52;99565.00;8374742;28;20080;-77
2022/09/04 12:59:04;;;;;;;1999.90;999.90;;;;;;;27.82;34.05;99563.63;8363831;28;20049;-77
2022/09/04 13:03:29;;;;;;;1999.90;999.90;;;;;;;28.17;33.15;99566.38;8371406;28;20467;-77
2022/09/04 13:07:39;;;;;;;1999.90;999.90;;;;;;;27.76;31.09;99564.09;8361779;28;20845;-78
2022/09/04 13:12:13;;;;;;;1999.90;999.90;;;;;;;27.68;33.32;99564.66;8357326;28;20079;-78
2022/09/04 13:16:31;;;;;;;1999.90;999.90;;;;;;;27.84;33.96;99569.75;8357484;28;20033;-76
2022/09/04 13:21:04;;;;;;;1999.90;999.90;;;;;;;28.13;35.64;99572.06;8374161;28;20035;-78
2022/09/04 13:25:18;;;;;;;1999.90;999.90;;;;;;;28.17;34.38;99573.53;8356153;28;20083;-77
2022/09/04 13:29:35;;;;;;;1999.90;999.90;;;;;;;27.65;34.07;99564.88;8359563;28;20056;-77
2022/09/04 13:33:53;;;;;;;1999.90;999.90;;;;;;;27.25;33.86;99565.97;8338699;28;20087;-77
2022/09/04 13:37:59;;;;;;;1999.90;999.90;;;;;;;26.93;33.89;99561.06;8379906;28;20052;-77
2022/09/04 13:42:32;;;;;;;1999.90;999.90;;;;;;;26.98;35.31;99553.59;8363872;28;20068;-77
2022/09/04 13:46:38;;;;;;;1999.90;999.90;;;;;;;27.07;35.99;99546.78;8380729;28;20123;-77
2022/09/04 13:50:58;;;;;;;1999.90;999.90;;;;;;;27.57;36.38;99553.84;8356924;28;20421;-77
2022/09/04 13:55:16;;;;;;;1999.90;999.90;;;;;;;27.91;34.29;99543.44;8382198;28;20119;-77
2022/09/04 13:59:21;;;;;;;1999.90;999.90;;;;;;;28.15;34.02;99543.44;8342232;28;20036;-77
2022/09/04 14:03:38;;;;;;;1999.90;999.90;;;;;;;27.81;33.09;99545.06;8379095;28;20048;-77
2022/09/04 14:07:43;;;;;;;1999.90;999.90;;;;;;;27.44;34.18;99554.84;8378352;28;20045;-77
2022/09/04 14:11:45;;;;;;;1999.90;999.90;;;;;;;27.58;34.88;99550.22;8383289;28;20046;-77
2022/09/04 14:16:00;;;;;;;;;;;;;;;27.81;33.57;99545.91;8364032;28;20059;-77
2022/09/04 14:20:13;;;;;;;1999.90;999.90;;;;;;;28.21;34.00;99541.19;8360339;28;20278;-78
2022/09/04 14:24:38;;;;;;;1999.90;999.90;;;;;;;28.52;33.67;99545.06;8360547;28;20098;-78
2022/09/04 14:28:54;;;;;;;1999.90;999.90;;;;;;;28.68;33.19;99542.06;8361056;28;20052;-77
2022/09/04 14:33:08;;;;;;;1999.90;999.90;;;;;;;28.49;32.36;99545.31;8344714;28;20033;-77
2022/09/04 14:37:39;;;;;;;1999.90;999.90;;;;;;;28.30;32.57;99536.97;8359811;28;20431;-77
2022/09/04 14:42:01;;;;;;;1999.90;999.90;;;;;;;28.51;33.27;99534.50;8363110;28;20059;-77
2022/09/04 14:46:30;;;;;;;1999.90;999.90;;;;;;;28.68;33.28;99541.22;8354153;28;20044;-77
2022/09/04 14:51:10;;;;;;;1999.90;999.90;;;;;;;28.89;32.70;99540.44;8348272;28;20041;-77
2022/09/04 14:55:33;;;;;;;1999.90;999.90;;;;;;;28.92;31.02;99534.03;8367295;28;20044;-77
2022/09/04 14:59:42;;;;;;;1999.90;999.90;;;;;;;28.98;32.15;99530.03;8376704;28;20048;-77
2022/09/04 15:04:12;;;;;;;1999.90;999.90;;;;;;;29.17;32.07;99532.94;8346129;28;20512;-77
2022/09/04 15:08:25;;;;;;;1999.90;999.90;;;;;;;29.15;31.55;99524.19;8355902;28;20064;-78
2022/09/04 15:12:33;;;;;;;1999.90;999.90;;;;;;;29.27;31.79;99525.91;8361173;28;20048;-77
2022/09/04 15:16:48;;;;;;;1999.90;999.90;;;;;;;29.38;31.60;99523.22;8376631;28;20036;-78
2022/09/04 15:21:04;;;;;;;1999.90;999.90;;;;;;;29.50;30.99;99524.09;8385624;28;20041;-77
2022/09/04 15:25:18;;;;;;;1999.90;999.90;;;;;;;29.55;31.15;99508.50;8346756;28;20108;-77
2022/09/04 15:29:32;;;;;;;1999.90;999.90;;;;;;;29.69;30.99;99515.44;8341700;28;20423;-77
2022/09/04 15:33:34;;;;;;;1999.90;999.90;;;;;;;29.79;30.57;99513.69;8352464;28;20061;-77
2022/09/04 15:37:36;;;;;;;1999.90;999.90;;;;;;;29.91;29.79;99514.50;8349827;28;20061;-77
2022/09/04 15:41:46;;;;;;;1999.90;999.90;;;;;;;29.87;28.47;99507.72;8344586;28;20055;-77
2022/09/04 15:45:50;;;;;;;1999.90;999.90;;;;;;;29.90;28.18;99504.78;8304147;28;20077;-78
2022/09/04 15:49:57;;;;;;;1999.90;999.90;;;;;;;29.98;28.84;99513.91;8327347;28;20119;-77
2022/09/04 15:54:20;;;;;;;1999.90;999.90;;;;;;;29.91;27.70;99506.47;8339562;28;20049;-77
2022/09/04 15:58:37;;;;;;;1999.90;999.90;;;;;;;29.89;27.55;99505.75;8341074;28;20532;-77
2022/09/04 16:02:58;;;;;;;1999.90;999.90;;;;;;;30.00;28.56;99495.03;8340981;28;20041;-76
2022/09/04 16:07:19;;;;;;;1999.90;999.90;;;;;;;30.05;27.68;99490.16;8321801;28;20059;-77
2022/09/04 16:11:40;;;;;;;1999.90;999.90;;;;;;;30.08;27.86;99493.41;8330877;28;20045;-79
2022/09/04 16:15:44;;;;;;;1999.90;999.90;;;;;;;30.16;29.12;99487.41;8326296;28;20060;-77
2022/09/04 16:19:57;;;;;;;1999.90;999.90;;;;;;;30.19;27.66;99480.97;8313716;28;20037;-77
2022/09/04 16:24:07;;;;;;;1999.90;999.90;;;;;;;30.27;26.68;99484.69;8327272;28;20065;-78
2022/09/04 16:28:24;;;;;;;1999.90;999.90;;;;;;;30.52;27.00;99486.16;8326688;28;20069;-78
2022/09/04 16:32:27;;;;;;;1999.90;999.90;;;;;;;31.27;25.41;99485.03;8342992;28;20530;-77
2022/09/04 16:37:10;;;;;;;1999.90;999.90;;;;;;;29.84;27.38;99483.88;8347209;28;20055;-78
2022/09/04 16:41:24;;;;;;;1999.90;999.90;;;;;;;28.67;29.96;99472.72;8385244;28;20051;-77
2022/09/04 16:45:38;;;;;;;1999.90;999.90;;;;;;;27.85;30.60;99467.34;8362482;28;20485;-77
2022/09/04 16:50:00;;;;;;;1999.90;999.90;;;;;;;27.24;33.32;99466.44;8374515;28;20036;-77
2022/09/04 16:54:29;;;;;;;1999.90;999.90;;;;;;;26.64;35.01;99464.47;8399872;28;20044;-77
2022/09/04 16:59:08;;;;;;;1999.90;999.90;;;;;;;26.18;34.65;99461.38;8402467;28;20127;-77
2022/09/04 17:03:24;;;;;;;1999.90;999.90;;;;;;;25.88;34.60;99465.16;8373776;28;20059;-77
2022/09/04 17:07:36;;;;;;;1999.90;999.90;;;;;;;25.44;36.87;99464.50;8374891;28;20545;-77
2022/09/04 17:11:41;;;;;;;1999.90;999.90;;;;;;;25.12;37.77;99464.75;8390552;28;20095;-77
2022/09/04 17:15:58;;;;;;;1999.90;999.90;;;;;;;24.77;38.38;99460.72;8388298;28;20194;-77
2022/09/04 17:20:10;;;;;;;1999.90;999.90;;;;;;;24.41;40.34;99462.88;8375197;28;20040;-78
2022/09/04 17:24:26;;;;;;;1999.90;999.90;;;;;;;24.04;39.91;99458.00;8385902;28;20626;-77
2022/09/04 17:29:00;;;;;;;1999.90;999.90;;;;;;;23.68;40.23;99459.19;8361754;28;20493;-78
2022/09/04 17:33:43;;;;;;;1999.90;999.90;;;;;;;23.40;41.83;99474.94;8375279;28;20048;-77
2022/09/04 17:38:19;;;;;;;1999.90;999.90;;;;;;;23.05;41.78;99468.91;8374476;28;20499;-77
2022/09/04 17:43:13;;;;;;;1999.90;999.90;;;;;;;22.78;42.57;99473.84;8356805;28;20364;-78
2022/09/04 17:47:41;;;;;;;1999.90;999.90;;;;;;;22.56;43.53;99477.63;8369345;28;20061;-77
2022/09/04 17:51:54;;;;;;;1999.90;999.90;;;;;;;22.39;43.96;99482.09;8387721;28;20060;-76
2022/09/04 17:56:36;;;;;;;1999.90;999.90;;;;;;;22.14;44.92;99483.34;8372944;28;20044;-77
2022/09/04 18:00:53;;;;;;;1999.90;999.90;;;;;;;21.95;45.31;99485.16;8357232;28;20059;-77
2022/09/04 18:05:23;;;;;;;1999.90;999.90;;;;;;;21.68;46.78;99484.69;8377583;28;20067;-77
2022/09/04 18:09:49;;;;;;;1999.90;999.90;;;;;;;21.45;47.78;99491.09;8386554;28;20086;-77
2022/09/04 18:14:16;;;;;;;1999.90;999.90;;;;;;;21.26;48.00;99491.09;8402364;28;20129;-78
2022/09/04 18:18:26;;;;;;;1999.90;999.90;;;;;;;21.07;48.85;99496.34;8370728;28;20048;-77
2022/09/04 18:22:43;;;;;;;1999.90;999.90;;;;;;;20.91;49.53;99502.38;8388729;28;20487;-78
2022/09/04 18:27:10;;;;;;;1999.90;999.90;;;;;;;20.69;50.03;99507.75;8375630;28;20048;-77
2022/09/04 18:31:31;;;;;;;1999.90;999.90;;;;;;;20.50;51.16;99518.25;8385338;28;20044;-77
2022/09/04 18:35:56;;;;;;;1999.90;999.90;;;;;;;20.31;51.38;99525.19;8349411;28;20129;-77
2022/09/04 18:40:54;;;;;;;1999.90;999.90;;;;;;;20.07;51.93;99525.28;8348646;28;20069;-77
2022/09/04 18:45:40;;;;;;;1999.90;999.90;;;;;;;19.94;52.12;99532.00;8348672;28;20052;-77
2022/09/04 18:50:02;;;;;;;1999.90;999.90;;;;;;;19.77;52.41;99534.44;8346201;28;20343;-77
2022/09/04 18:54:35;;;;;;;1999.90;999.90;;;;;;;19.60;53.32;99546.50;8342408;28;20486;-78
2022/09/04 18:58:48;;;;;;;1999.90;999.90;;;;;;;19.47;55.19;99557.50;8345234;28;20083;-78
2022/09/04 19:03:03;;;;;;;1999.90;999.90;;;;;;;19.22;54.57;99552.31;8346687;28;20040;-78
2022/09/04 19:07:15;;;;;;;1999.90;999.90;;;;;;;19.07;54.75;99560.78;8330520;28;20132;-77
2022/09/04 19:11:33;;;;;;;1999.90;999.90;;;;;;;18.94;55.65;99555.94;8350155;28;20147;-76
2022/09/04 19:16:00;;;;;;;1999.90;999.90;;;;;;;18.80;56.17;99571.34;8348565;28;20049;-77
2022/09/04 19:20:09;;;;;;;1999.90;999.90;;;;;;;18.66;56.16;99568.34;8347432;28;20041;-77
2022/09/04 19:24:35;;;;;;;1999.90;999.90;;;;;;;18.56;56.50;99578.28;8340319;28;20775;-77
2022/09/04 19:28:45;;;;;;;1999.90;999.90;;;;;;;18.45;56.87;99575.16;8325371;28;20139;-77
2022/09/04 19:33:24;;;;;;;1999.90;999.90;;;;;;;18.35;57.19;99581.66;8340455;28;20049;-77